Dati Storici

Data ora Umidita' aria (%) Temperatura aria (°C) Rad globale (W/m²) Gonioanemometro (°) Tacoanemometro (m/s) Pioggia (mm)
06-08-2020 14:50 55.2 % 29.001 96.401 0.933 0 0
06-08-2020 14:40 54.7 % 28.63 99.448 2.259 0 0
06-08-2020 14:30 53.4 % 27.832 117.956 1.933 0 0
06-08-2020 14:20 51.3 % 29.311 119.125 1.812 0 0
06-08-2020 14:10 51.9 % 29.022 71.854 2.223 0 0
06-08-2020 14:00 52.3 % 28.843 59.55 1.773 0 0
06-08-2020 13:50 51.1 % 28.99 104.84 2.331 0 0
06-08-2020 13:40 54.1 % 28.348 132.936 2.405 0 0
06-08-2020 13:30 54.9 % 28.928 119.513 1.752 0 0
06-08-2020 13:20 55.5 % 29.089 68.135 2.036 0 0
06-08-2020 13:10 55.1 % 28.293 47.42 1.089 0 0
06-08-2020 13:00 55.1 % 28.668 100.768 1.907 0 0
06-08-2020 12:50 55.7 % 27.855 87.591 1.098 0 0
06-08-2020 12:40 53.4 % 28.587 115.355 1.977 0 0
06-08-2020 12:30 51.7 % 29.215 10.082 2.046 0 0
06-08-2020 12:20 53.7 % 28.864 54.774 2.548 0 0
06-08-2020 12:10 53.7 % 28.478 130.774 1.362 0 0
06-08-2020 12:00 54.9 % 28.193 65.283 1.244 0 0
06-08-2020 11:50 55.1 % 28.154 55.032 2.236 0 0
06-08-2020 11:40 54 % 27.877 90.406 2.151 0 0

I dati sono presentati in modo automatico a scopo informativo. In seguito a verifica i dati possono subire modifiche o essere invalidati e non riportati negli archivi definitivi.